createdAt,value
2024-03-12T00:01:49.583Z,18.80
2024-03-12T00:04:18.016Z,20.20
2024-03-12T00:06:46.207Z,20.00
2024-03-12T00:09:13.948Z,18.50
2024-03-12T00:11:43.765Z,20.40
2024-03-12T00:14:11.406Z,18.30
2024-03-12T00:16:41.900Z,21.50
2024-03-12T00:19:11.024Z,21.10
2024-03-12T00:21:38.693Z,20.60
2024-03-12T00:24:06.695Z,20.00
2024-03-12T00:26:34.422Z,17.30
2024-03-12T00:29:02.189Z,20.70
2024-03-12T00:31:29.596Z,25.00
2024-03-12T00:34:01.739Z,19.10
2024-03-12T00:36:30.184Z,20.60
2024-03-12T00:38:58.985Z,18.10
2024-03-12T00:41:26.520Z,22.20
2024-03-12T00:43:55.404Z,16.10
2024-03-12T00:46:23.735Z,19.20
2024-03-12T00:48:51.473Z,18.00
2024-03-12T00:51:19.732Z,19.20
2024-03-12T00:53:47.405Z,21.80
2024-03-12T00:56:16.683Z,17.80
2024-03-12T00:58:44.393Z,19.50
2024-03-12T01:01:16.618Z,22.80
2024-03-12T01:03:44.494Z,18.90
2024-03-12T01:06:13.194Z,24.30
2024-03-12T01:08:44.093Z,23.30
2024-03-12T01:11:13.658Z,21.50
2024-03-12T01:13:41.623Z,22.60
2024-03-12T01:16:09.189Z,22.40
2024-03-12T01:18:37.221Z,21.40
2024-03-12T01:21:04.846Z,18.10
2024-03-12T01:23:32.455Z,19.50
2024-03-12T01:25:59.978Z,20.80
2024-03-12T01:28:27.381Z,23.90
2024-03-12T01:30:54.964Z,19.90
2024-03-12T01:33:22.695Z,22.00
2024-03-12T01:35:50.498Z,26.90
2024-03-12T01:38:17.908Z,23.80
2024-03-12T01:40:45.525Z,24.50
2024-03-12T01:43:14.276Z,23.60
2024-03-12T01:45:43.810Z,21.40
2024-03-12T01:48:12.852Z,17.70
2024-03-12T01:50:41.384Z,23.10
2024-03-12T01:53:09.884Z,21.40
2024-03-12T01:55:45.192Z,22.70
2024-03-12T01:58:19.006Z,19.80
2024-03-12T02:00:47.593Z,18.10
2024-03-12T02:03:17.279Z,22.10
2024-03-12T02:05:47.858Z,21.20
2024-03-12T02:08:15.438Z,20.20
2024-03-12T02:10:43.082Z,20.10
2024-03-12T02:13:10.663Z,21.50
2024-03-12T02:15:38.516Z,24.00
2024-03-12T02:18:09.963Z,20.10
2024-03-12T02:20:39.670Z,19.90
2024-03-12T02:23:07.365Z,23.40
2024-03-12T02:25:34.866Z,21.70
2024-03-12T02:28:04.404Z,23.40
2024-03-12T02:30:32.358Z,25.60
2024-03-12T02:33:00.037Z,23.50
2024-03-12T02:35:27.825Z,23.10
2024-03-12T02:37:55.316Z,19.40
2024-03-12T02:40:23.805Z,23.20
2024-03-12T02:42:51.596Z,23.20
2024-03-12T02:45:22.387Z,21.90
2024-03-12T02:47:50.655Z,19.20
2024-03-12T02:50:19.648Z,23.60
2024-03-12T02:52:47.377Z,21.60
2024-03-12T02:55:15.541Z,20.90
2024-03-12T02:57:43.451Z,21.20
2024-03-12T03:00:16.108Z,23.40
2024-03-12T03:02:45.188Z,25.80
2024-03-12T03:05:14.580Z,22.40
2024-03-12T03:07:42.647Z,23.20
2024-03-12T03:10:14.466Z,24.50
2024-03-12T03:12:43.350Z,22.70
2024-03-12T03:15:13.831Z,26.20
2024-03-12T03:17:47.068Z,23.50
2024-03-12T03:20:17.774Z,21.60
2024-03-12T03:22:48.584Z,22.80
2024-03-12T03:25:16.656Z,24.40
2024-03-12T03:27:44.573Z,23.70
2024-03-12T03:30:14.573Z,22.20
2024-03-12T03:32:42.254Z,22.90
2024-03-12T03:35:10.009Z,22.00
2024-03-12T03:37:37.635Z,21.30
2024-03-12T03:40:06.261Z,23.40
2024-03-12T03:42:33.907Z,26.40
2024-03-12T03:45:01.541Z,25.50
2024-03-12T03:47:35.407Z,17.80
2024-03-12T03:50:04.345Z,22.80
2024-03-12T03:52:31.962Z,18.30
2024-03-12T03:54:59.404Z,22.00
2024-03-12T03:57:27.376Z,19.20
2024-03-12T03:59:54.990Z,21.20
2024-03-12T04:02:22.726Z,19.50
2024-03-12T04:04:50.875Z,18.80
2024-03-12T04:07:21.140Z,19.40
2024-03-12T04:09:48.832Z,18.20
2024-03-12T04:12:16.531Z,19.60
2024-03-12T04:14:44.017Z,22.90
2024-03-12T04:17:11.467Z,19.70
2024-03-12T04:19:39.003Z,18.40
2024-03-12T04:22:07.399Z,17.90
2024-03-12T04:24:35.330Z,21.00
2024-03-12T04:27:02.958Z,17.80
2024-03-12T04:29:30.464Z,19.80
2024-03-12T04:31:57.960Z,21.10
2024-03-12T04:34:25.642Z,21.60
2024-03-12T04:36:53.114Z,21.70
2024-03-12T04:39:33.207Z,16.10
2024-03-12T04:42:03.555Z,21.20
2024-03-12T04:44:31.144Z,22.20
2024-03-12T04:46:58.792Z,20.40
2024-03-12T04:49:27.086Z,23.80
2024-03-12T04:51:54.818Z,19.60
2024-03-12T04:54:22.470Z,23.10
2024-03-12T04:56:52.931Z,18.20
2024-03-12T04:59:20.582Z,21.90
2024-03-12T05:01:50.414Z,18.60
2024-03-12T05:04:22.604Z,19.70
2024-03-12T05:06:51.802Z,17.90
2024-03-12T05:09:19.744Z,25.80
2024-03-12T05:11:47.367Z,19.20
2024-03-12T05:14:15.020Z,19.80
2024-03-12T05:16:43.150Z,19.10
2024-03-12T05:19:12.945Z,18.80
2024-03-12T05:21:40.705Z,20.70
2024-03-12T05:24:08.391Z,18.70
2024-03-12T05:26:45.248Z,21.30
2024-03-12T05:29:13.463Z,22.40
2024-03-12T05:31:41.613Z,20.70
2024-03-12T05:34:20.247Z,21.20
2024-03-12T05:36:53.321Z,22.90
2024-03-12T05:39:50.435Z,21.70
2024-03-12T05:42:37.466Z,20.90
2024-03-12T05:45:24.114Z,21.10
2024-03-12T05:48:10.595Z,24.30
2024-03-12T05:50:42.406Z,23.80
2024-03-12T05:53:10.086Z,22.50
2024-03-12T05:55:37.628Z,22.90
2024-03-12T05:58:06.205Z,25.00
2024-03-12T06:00:34.011Z,26.30
2024-03-12T06:03:01.548Z,22.20
2024-03-12T06:05:29.112Z,20.10
2024-03-12T06:07:56.676Z,26.40
2024-03-12T06:10:24.266Z,21.70
2024-03-12T06:12:52.244Z,24.20
2024-03-12T06:15:20.466Z,24.90
2024-03-12T06:17:47.932Z,25.40
2024-03-12T06:20:15.630Z,21.20
2024-03-12T06:22:46.045Z,22.90
2024-03-12T06:25:14.011Z,23.70
2024-03-12T06:27:42.925Z,24.60
2024-03-12T06:30:12.429Z,30.60
2024-03-12T06:32:40.034Z,22.70
2024-03-12T06:35:09.135Z,21.10
2024-03-12T06:37:36.636Z,26.00
2024-03-12T06:40:06.059Z,28.20
2024-03-12T06:42:34.040Z,25.40
2024-03-12T06:45:03.550Z,23.50
2024-03-12T06:47:38.227Z,26.00
2024-03-12T06:50:10.084Z,21.90
2024-03-12T06:52:37.636Z,25.60
2024-03-12T06:55:06.391Z,28.00
2024-03-12T06:57:35.639Z,23.10
2024-03-12T07:00:10.890Z,24.50
2024-03-12T07:02:39.719Z,23.20
2024-03-12T07:05:11.290Z,24.70
2024-03-12T07:07:45.316Z,26.90
2024-03-12T07:10:13.109Z,24.90
2024-03-12T07:12:40.811Z,25.20
2024-03-12T07:15:08.915Z,27.50
2024-03-12T07:17:36.453Z,24.90
2024-03-12T07:20:11.504Z,25.10
2024-03-12T07:22:46.398Z,25.50
2024-03-12T07:25:14.887Z,27.10
2024-03-12T07:27:42.914Z,28.30
2024-03-12T07:30:11.822Z,25.20
2024-03-12T07:32:39.446Z,28.40
2024-03-12T07:35:07.821Z,27.40
2024-03-12T07:37:40.677Z,26.90
2024-03-12T07:40:13.272Z,32.00
2024-03-12T07:42:42.965Z,25.90
2024-03-12T07:45:11.698Z,26.90
2024-03-12T07:47:42.238Z,26.30
2024-03-12T07:50:12.501Z,24.70
2024-03-12T07:52:40.546Z,32.60
2024-03-12T07:55:11.271Z,24.50
2024-03-12T07:57:39.261Z,28.50
2024-03-12T08:00:16.387Z,26.10
2024-03-12T08:02:44.317Z,28.50
2024-03-12T08:05:12.289Z,32.00
2024-03-12T08:08:52.887Z,29.00
2024-03-12T08:11:21.044Z,34.40
2024-03-12T08:13:49.574Z,26.90
2024-03-12T08:16:17.208Z,27.60
2024-03-12T08:18:44.855Z,29.70
2024-03-12T08:21:13.099Z,30.40
2024-03-12T08:23:40.741Z,30.50
2024-03-12T08:27:20.677Z,31.90
2024-03-12T08:29:48.342Z,32.00
2024-03-12T08:32:15.992Z,29.80
2024-03-12T08:34:43.950Z,32.30
2024-03-12T08:37:13.473Z,28.90
2024-03-12T08:39:41.887Z,31.20
2024-03-12T08:42:11.291Z,32.80
2024-03-12T08:44:39.125Z,30.90
2024-03-12T08:47:07.097Z,30.20
2024-03-12T08:49:34.879Z,32.50
2024-03-12T08:52:04.886Z,33.30
2024-03-12T08:54:32.939Z,30.00
2024-03-12T08:57:02.302Z,32.90
2024-03-12T08:59:30.728Z,31.00
2024-03-12T09:02:02.169Z,32.50
2024-03-12T09:04:31.747Z,32.30
2024-03-12T09:07:00.323Z,31.70
2024-03-12T09:09:28.378Z,27.90
2024-03-12T09:11:57.395Z,35.40
2024-03-12T09:14:25.966Z,30.90
2024-03-12T09:16:53.637Z,27.80
2024-03-12T09:19:26.159Z,30.70
2024-03-12T09:21:54.555Z,31.10
2024-03-12T09:24:24.099Z,27.90
2024-03-12T09:26:53.193Z,31.70
2024-03-12T09:29:21.980Z,34.20
2024-03-12T09:31:49.414Z,30.60
2024-03-12T09:34:18.159Z,31.10
2024-03-12T09:36:46.156Z,27.00
2024-03-12T09:39:13.805Z,30.00
2024-03-12T09:41:43.596Z,30.20
2024-03-12T09:44:12.527Z,31.10
2024-03-12T09:46:40.779Z,26.20
2024-03-12T09:49:09.224Z,33.30
2024-03-12T09:51:37.956Z,26.20
2024-03-12T09:54:05.595Z,28.40
2024-03-12T09:56:35.096Z,26.70
2024-03-12T09:59:02.612Z,32.20
2024-03-12T10:01:30.231Z,28.20
2024-03-12T10:03:58.519Z,28.40
2024-03-12T10:06:27.111Z,28.20
2024-03-12T10:09:01.293Z,31.30
2024-03-12T10:11:28.886Z,31.30
2024-03-12T10:14:07.338Z,28.60
2024-03-12T10:16:35.921Z,27.50
2024-03-12T10:19:16.345Z,33.70
2024-03-12T10:21:46.453Z,32.00
2024-03-12T10:24:15.507Z,30.40
2024-03-12T10:26:43.622Z,31.00
2024-03-12T10:29:19.533Z,30.10
2024-03-12T10:31:48.085Z,35.20
2024-03-12T10:34:21.573Z,34.10
2024-03-12T10:36:51.463Z,33.70
2024-03-12T10:39:30.123Z,37.50
2024-03-12T10:42:00.663Z,34.40
2024-03-12T10:44:30.155Z,34.10
2024-03-12T10:47:00.650Z,32.30
2024-03-12T10:49:29.266Z,34.80
2024-03-12T10:51:56.857Z,34.90
2024-03-12T10:54:25.325Z,33.70
2024-03-12T10:56:53.026Z,37.40
2024-03-12T10:59:20.553Z,30.50
2024-03-12T11:01:49.607Z,32.90
2024-03-12T11:04:17.407Z,31.60
2024-03-12T11:06:45.142Z,28.10
2024-03-12T11:09:13.426Z,31.90
2024-03-12T11:11:41.594Z,27.40
2024-03-12T11:14:09.283Z,28.10
2024-03-12T11:16:37.856Z,30.50
2024-03-12T11:19:24.731Z,27.30
2024-03-12T11:21:53.335Z,31.40
2024-03-12T11:24:32.022Z,30.30
2024-03-12T11:27:05.084Z,28.80
2024-03-12T11:30:05.563Z,24.80
2024-03-12T11:32:45.705Z,29.70
2024-03-12T11:35:21.417Z,27.20
2024-03-12T11:38:03.901Z,23.00
2024-03-12T11:40:41.074Z,26.30
2024-03-12T11:43:18.180Z,22.40
2024-03-12T11:45:48.843Z,25.00
2024-03-12T11:48:22.266Z,22.90
2024-03-12T11:50:56.085Z,26.20
2024-03-12T11:53:24.098Z,25.30
2024-03-12T11:55:59.403Z,24.60
2024-03-12T11:58:36.039Z,25.90
2024-03-12T12:01:04.064Z,24.40
2024-03-12T12:03:31.931Z,26.50
2024-03-12T12:06:00.312Z,22.20
2024-03-12T12:08:30.328Z,22.10
2024-03-12T12:11:04.036Z,22.50
2024-03-12T12:13:32.008Z,23.30
2024-03-12T12:16:02.457Z,20.30
2024-03-12T12:18:31.222Z,22.40
2024-03-12T12:21:01.491Z,21.90
2024-03-12T12:23:29.323Z,20.30
2024-03-12T12:25:57.859Z,24.20
2024-03-12T12:28:26.336Z,20.50
2024-03-12T12:30:58.339Z,21.50
2024-03-12T12:33:26.598Z,19.90
2024-03-12T12:35:58.930Z,23.40
2024-03-12T12:38:27.228Z,20.90
2024-03-12T12:40:55.116Z,22.50
2024-03-12T12:43:23.284Z,20.70
2024-03-12T12:45:51.105Z,23.80
2024-03-12T12:48:19.777Z,20.30
2024-03-12T12:50:55.164Z,20.60
2024-03-12T12:53:23.699Z,19.20
2024-03-12T12:55:58.619Z,19.00
2024-03-12T12:58:34.668Z,20.30
2024-03-12T13:01:03.603Z,21.60
2024-03-12T13:03:36.566Z,21.30
2024-03-12T13:06:24.002Z,23.10
2024-03-12T13:08:52.783Z,27.50
2024-03-12T13:11:22.908Z,25.40
2024-03-12T13:13:52.404Z,26.60
2024-03-12T13:16:22.949Z,26.40
2024-03-12T13:18:51.884Z,25.40
2024-03-12T13:21:22.740Z,26.10
2024-03-12T13:23:51.287Z,24.80
2024-03-12T13:26:20.116Z,24.40
2024-03-12T13:28:49.714Z,21.30
2024-03-12T13:31:17.559Z,24.10
2024-03-12T13:33:45.989Z,22.10
2024-03-12T13:36:14.058Z,21.80
2024-03-12T13:38:41.883Z,23.20
2024-03-12T13:41:10.719Z,20.30
2024-03-12T13:43:39.047Z,21.40
2024-03-12T13:46:06.896Z,18.80
2024-03-12T13:48:38.497Z,18.90
2024-03-12T13:51:08.888Z,22.70
2024-03-12T13:53:36.785Z,22.40
2024-03-12T13:56:07.982Z,20.50
2024-03-12T13:58:35.621Z,21.20
2024-03-12T14:01:03.485Z,19.80
2024-03-12T14:03:32.513Z,21.20
2024-03-12T14:06:05.094Z,18.80
2024-03-12T14:08:32.691Z,19.00
2024-03-12T14:11:00.367Z,20.50
2024-03-12T14:13:28.455Z,19.20
2024-03-12T14:15:57.205Z,20.40
2024-03-12T14:18:25.061Z,22.10
2024-03-12T14:20:52.679Z,19.00
2024-03-12T14:23:21.305Z,19.70
2024-03-12T14:25:50.432Z,18.10
2024-03-12T14:28:18.214Z,21.30
2024-03-12T14:30:46.292Z,22.50
2024-03-12T14:33:14.144Z,22.90
2024-03-12T14:35:41.986Z,22.20
2024-03-12T14:38:09.754Z,20.40
2024-03-12T14:40:37.465Z,20.50
2024-03-12T14:43:06.024Z,20.20
2024-03-12T14:45:34.084Z,22.40
2024-03-12T14:48:03.671Z,22.90
2024-03-12T14:50:31.257Z,24.70
2024-03-12T14:52:58.991Z,23.10
2024-03-12T14:55:26.639Z,26.10
2024-03-12T14:57:54.439Z,25.50
2024-03-12T15:00:23.313Z,20.50
2024-03-12T15:02:50.903Z,22.90
2024-03-12T15:05:21.897Z,24.50
2024-03-12T15:07:49.906Z,21.00
2024-03-12T15:10:18.150Z,21.50
2024-03-12T15:12:45.977Z,24.90
2024-03-12T15:15:15.634Z,24.40
2024-03-12T15:17:46.432Z,21.90
2024-03-12T15:20:17.241Z,26.00
2024-03-12T15:22:46.728Z,26.40
2024-03-12T15:25:16.618Z,26.60
2024-03-12T15:27:44.263Z,25.60
2024-03-12T15:30:13.250Z,27.70
2024-03-12T15:32:42.850Z,34.60
2024-03-12T15:35:12.289Z,32.10
2024-03-12T15:37:40.050Z,29.80
2024-03-12T15:40:10.288Z,32.00
2024-03-12T15:42:41.018Z,35.70
2024-03-12T15:45:12.808Z,33.20
2024-03-12T15:47:40.914Z,38.50
2024-03-12T15:50:09.055Z,32.40
2024-03-12T15:52:37.238Z,34.50
2024-03-12T15:55:05.726Z,32.90
2024-03-12T15:57:35.208Z,28.00
2024-03-12T16:00:05.868Z,30.30
2024-03-12T16:02:38.384Z,28.60
2024-03-12T16:05:06.815Z,31.80
2024-03-12T16:07:38.309Z,30.60
2024-03-12T16:10:09.763Z,30.10
2024-03-12T16:12:40.518Z,30.30
2024-03-12T16:15:10.893Z,28.90
2024-03-12T16:17:38.672Z,30.40
2024-03-12T16:20:14.459Z,29.80
2024-03-12T16:22:43.175Z,33.00
2024-03-12T16:25:11.569Z,31.00
2024-03-12T16:27:41.048Z,33.70
2024-03-12T16:30:10.976Z,35.10
2024-03-12T16:32:42.808Z,30.30
2024-03-12T16:35:10.588Z,27.00
2024-03-12T16:37:39.946Z,30.00
2024-03-12T16:40:08.902Z,32.90
2024-03-12T16:42:37.068Z,27.60
2024-03-12T16:45:06.806Z,29.80
2024-03-12T16:47:34.964Z,27.80
2024-03-12T16:50:09.326Z,30.10
2024-03-12T16:52:37.895Z,26.20
2024-03-12T16:55:06.443Z,25.90
2024-03-12T16:57:35.292Z,28.10
2024-03-12T17:00:05.208Z,29.50
2024-03-12T17:02:45.234Z,28.60
2024-03-12T17:05:14.695Z,27.30
2024-03-12T17:07:43.118Z,27.20
2024-03-12T17:10:12.772Z,26.80
2024-03-12T17:12:41.551Z,25.10
2024-03-12T17:15:12.999Z,27.60
2024-03-12T17:17:40.673Z,24.90
2024-03-12T17:20:12.279Z,27.20
2024-03-12T17:22:42.653Z,24.80
2024-03-12T17:25:11.921Z,25.50
2024-03-12T17:27:42.513Z,24.10
2024-03-12T17:30:11.535Z,23.70
2024-03-12T17:32:40.773Z,25.40
2024-03-12T17:35:16.234Z,23.60
2024-03-12T17:37:47.095Z,24.20
2024-03-12T17:40:15.539Z,24.00
2024-03-12T17:42:47.004Z,22.90
2024-03-12T17:45:15.761Z,21.10
2024-03-12T17:47:50.690Z,25.70
2024-03-12T17:50:19.213Z,22.40
2024-03-12T17:52:59.755Z,24.60
2024-03-12T17:55:29.424Z,22.70
2024-03-12T17:57:57.426Z,22.00
2024-03-12T18:00:25.651Z,22.90
2024-03-12T18:02:56.243Z,25.40
2024-03-12T18:05:24.254Z,27.00
2024-03-12T18:07:55.064Z,27.50
2024-03-12T18:10:26.365Z,25.00
2024-03-12T18:12:54.348Z,24.80
2024-03-12T18:15:24.887Z,25.10
2024-03-12T18:17:53.581Z,25.70
2024-03-12T18:20:25.582Z,26.50
2024-03-12T18:22:54.373Z,23.30
2024-03-12T18:25:22.413Z,24.00
2024-03-12T18:27:54.847Z,24.60
2024-03-12T18:30:22.935Z,24.40
2024-03-12T18:32:50.805Z,23.90
2024-03-12T18:35:20.779Z,22.80
2024-03-12T18:37:48.577Z,26.80
2024-03-12T18:40:20.034Z,22.00
2024-03-12T18:42:49.527Z,23.10
2024-03-12T18:45:19.831Z,24.00
2024-03-12T18:47:56.957Z,28.00
2024-03-12T18:50:29.313Z,23.40
2024-03-12T18:52:57.192Z,27.20
2024-03-12T18:55:28.132Z,24.60
2024-03-12T18:57:58.052Z,25.20
2024-03-12T19:00:27.192Z,25.70
2024-03-12T19:02:55.196Z,21.50
2024-03-12T19:05:23.488Z,23.70
2024-03-12T19:07:52.417Z,24.80
2024-03-12T19:10:21.089Z,25.40
2024-03-12T19:12:50.756Z,24.10
2024-03-12T19:15:26.534Z,22.90
2024-03-12T19:17:56.044Z,24.30
2024-03-12T19:20:26.433Z,24.40
2024-03-12T19:22:57.703Z,25.00
2024-03-12T19:25:27.391Z,22.70
2024-03-12T19:27:56.431Z,24.40
2024-03-12T19:30:26.187Z,23.70
2024-03-12T19:32:54.581Z,25.80
2024-03-12T19:35:23.206Z,28.30
2024-03-12T19:37:54.472Z,27.10
2024-03-12T19:40:23.016Z,25.00
2024-03-12T19:42:53.227Z,24.00
2024-03-12T19:45:32.519Z,26.60
2024-03-12T19:48:03.358Z,24.90
2024-03-12T19:50:31.824Z,27.90
2024-03-12T19:52:59.646Z,25.10
2024-03-12T19:55:31.501Z,25.50
2024-03-12T19:58:03.350Z,25.00
2024-03-12T20:00:35.799Z,29.10
2024-03-12T20:03:07.586Z,24.80
2024-03-12T20:05:39.467Z,29.40
2024-03-12T20:08:10.445Z,24.70
2024-03-12T20:10:40.222Z,23.80
2024-03-12T20:13:08.175Z,26.30
2024-03-12T20:15:38.541Z,25.30
2024-03-12T20:18:07.538Z,24.40
2024-03-12T20:20:35.565Z,23.40
2024-03-12T20:23:04.911Z,27.60
2024-03-12T20:26:46.877Z,24.40
2024-03-12T20:29:14.485Z,28.10
2024-03-12T20:31:42.228Z,32.10
2024-03-12T20:34:09.992Z,29.70
2024-03-12T20:36:37.955Z,26.70
2024-03-12T20:39:16.483Z,31.50
2024-03-12T20:41:44.118Z,24.40
2024-03-12T20:44:11.983Z,25.40
2024-03-12T20:46:41.259Z,26.10
2024-03-12T20:49:10.837Z,38.80
2024-03-12T20:51:38.637Z,29.70
2024-03-12T20:54:09.537Z,30.30
2024-03-12T20:56:37.299Z,26.70
2024-03-12T20:59:06.276Z,30.90
2024-03-12T21:01:33.861Z,28.10
2024-03-12T21:04:03.511Z,27.90
2024-03-12T21:06:32.540Z,24.20
2024-03-12T21:09:11.544Z,28.20
2024-03-12T21:11:42.688Z,26.00
2024-03-12T21:14:10.189Z,29.00
2024-03-12T21:16:37.761Z,30.30
2024-03-12T21:19:05.424Z,29.40
2024-03-12T21:21:33.642Z,32.50
2024-03-12T21:24:01.185Z,28.80
2024-03-12T21:26:28.789Z,28.10
2024-03-12T21:28:56.777Z,26.30
2024-03-12T21:31:24.321Z,28.00
2024-03-12T21:33:51.824Z,23.80
2024-03-12T21:36:19.398Z,27.10
2024-03-12T21:38:49.480Z,25.00
2024-03-12T21:41:17.181Z,26.60
2024-03-12T21:43:45.906Z,24.00
2024-03-12T21:46:13.440Z,22.70
2024-03-12T21:48:41.213Z,25.90
2024-03-12T21:51:10.184Z,28.00
2024-03-12T21:53:37.688Z,28.30
2024-03-12T21:56:08.920Z,27.60
2024-03-12T21:58:36.336Z,27.90
2024-03-12T22:01:04.381Z,26.60
2024-03-12T22:03:32.580Z,27.20
2024-03-12T22:06:00.342Z,25.00
2024-03-12T22:08:27.891Z,26.30
2024-03-12T22:10:58.040Z,28.00
2024-03-12T22:13:31.569Z,21.50
2024-03-12T22:16:06.790Z,25.80
2024-03-12T22:18:35.717Z,28.70
2024-03-12T22:21:03.648Z,22.70
2024-03-12T22:23:34.489Z,24.00
2024-03-12T22:26:01.913Z,26.70
2024-03-12T22:28:29.380Z,24.60
2024-03-12T22:30:56.947Z,27.00
2024-03-12T22:33:26.126Z,24.40
2024-03-12T22:35:53.865Z,23.90
2024-03-12T22:38:21.713Z,24.10
2024-03-12T22:40:52.171Z,26.90
2024-03-12T22:43:20.358Z,24.80
2024-03-12T22:45:49.535Z,24.40
2024-03-12T22:48:18.551Z,26.00
2024-03-12T22:50:46.165Z,26.30
2024-03-12T22:53:14.995Z,23.20
2024-03-12T22:55:42.743Z,24.90
2024-03-12T22:58:11.838Z,23.80
2024-03-12T23:00:39.651Z,24.30
2024-03-12T23:03:07.732Z,27.40
2024-03-12T23:05:35.682Z,25.30
2024-03-12T23:08:07.293Z,25.50
2024-03-12T23:10:40.936Z,28.30
2024-03-12T23:15:40.168Z,23.90
2024-03-12T23:18:11.970Z,30.60
2024-03-12T23:20:46.189Z,26.70
2024-03-12T23:23:14.863Z,25.90
2024-03-12T23:25:42.876Z,26.30
2024-03-12T23:28:12.007Z,25.70
2024-03-12T23:30:40.161Z,28.30
2024-03-12T23:33:11.559Z,29.80
2024-03-12T23:35:39.047Z,36.40
2024-03-12T23:38:06.902Z,35.10
2024-03-12T23:40:34.566Z,30.20
2024-03-12T23:43:02.447Z,29.40
2024-03-12T23:45:32.149Z,30.10
2024-03-12T23:47:59.774Z,32.20
2024-03-12T23:50:27.365Z,30.00
2024-03-12T23:52:55.876Z,29.60
2024-03-12T23:55:23.850Z,30.30
2024-03-12T23:57:54.691Z,27.60
